sensor_id;sensor_type;location;lat;lon;timestamp;P1;durP1;ratioP1;P2;durP2;ratioP2
6985;SDS011;3533;51.246;6.850;2022-09-24T00:00:34;3.20;;;3.00;;
6985;SDS011;3533;51.246;6.850;2022-09-24T00:03:00;3.20;;;3.00;;
6985;SDS011;3533;51.246;6.850;2022-09-24T00:05:25;2.97;;;2.87;;
6985;SDS011;3533;51.246;6.850;2022-09-24T00:07:51;3.17;;;2.97;;
6985;SDS011;3533;51.246;6.850;2022-09-24T00:10:16;2.83;;;2.73;;
6985;SDS011;3533;51.246;6.850;2022-09-24T00:12:42;2.90;;;2.70;;
6985;SDS011;3533;51.246;6.850;2022-09-24T00:15:08;2.70;;;2.50;;
6985;SDS011;3533;51.246;6.850;2022-09-24T00:17:33;3.60;;;3.30;;
6985;SDS011;3533;51.246;6.850;2022-09-24T00:19:59;2.90;;;2.70;;
6985;SDS011;3533;51.246;6.850;2022-09-24T00:22:25;3.10;;;2.90;;
6985;SDS011;3533;51.246;6.850;2022-09-24T00:24:50;2.90;;;2.70;;
6985;SDS011;3533;51.246;6.850;2022-09-24T00:27:34;3.00;;;2.80;;
6985;SDS011;3533;51.246;6.850;2022-09-24T00:30:00;2.63;;;2.53;;
6985;SDS011;3533;51.246;6.850;2022-09-24T00:32:25;3.00;;;2.80;;
6985;SDS011;3533;51.246;6.850;2022-09-24T00:34:51;3.27;;;2.97;;
6985;SDS011;3533;51.246;6.850;2022-09-24T00:37:17;3.03;;;2.83;;
6985;SDS011;3533;51.246;6.850;2022-09-24T00:39:43;2.90;;;2.80;;
6985;SDS011;3533;51.246;6.850;2022-09-24T00:42:12;2.80;;;2.60;;
6985;SDS011;3533;51.246;6.850;2022-09-24T00:47:19;2.90;;;2.80;;
6985;SDS011;3533;51.246;6.850;2022-09-24T00:52:56;2.90;;;2.80;;
6985;SDS011;3533;51.246;6.850;2022-09-24T00:55:25;4.03;;;3.07;;
6985;SDS011;3533;51.246;6.850;2022-09-24T00:57:55;3.03;;;2.93;;
6985;SDS011;3533;51.246;6.850;2022-09-24T01:00:23;2.77;;;2.67;;
6985;SDS011;3533;51.246;6.850;2022-09-24T01:02:50;2.53;;;2.43;;
6985;SDS011;3533;51.246;6.850;2022-09-24T01:05:20;3.00;;;2.70;;
6985;SDS011;3533;51.246;6.850;2022-09-24T01:07:46;2.93;;;2.83;;
6985;SDS011;3533;51.246;6.850;2022-09-24T01:10:12;11.40;;;3.63;;
6985;SDS011;3533;51.246;6.850;2022-09-24T01:13:02;2.63;;;2.53;;
6985;SDS011;3533;51.246;6.850;2022-09-24T01:15:41;3.00;;;2.80;;
6985;SDS011;3533;51.246;6.850;2022-09-24T01:18:22;3.00;;;2.80;;
6985;SDS011;3533;51.246;6.850;2022-09-24T01:21:07;2.60;;;2.50;;
6985;SDS011;3533;51.246;6.850;2022-09-24T01:23:55;2.87;;;2.70;;
6985;SDS011;3533;51.246;6.850;2022-09-24T01:26:39;3.30;;;3.03;;
6985;SDS011;3533;51.246;6.850;2022-09-24T01:32:39;3.20;;;3.00;;
6985;SDS011;3533;51.246;6.850;2022-09-24T01:35:08;2.90;;;2.80;;
6985;SDS011;3533;51.246;6.850;2022-09-24T01:37:48;2.67;;;2.57;;
6985;SDS011;3533;51.246;6.850;2022-09-24T01:40:21;3.33;;;3.00;;
6985;SDS011;3533;51.246;6.850;2022-09-24T01:42:49;3.10;;;2.90;;
6985;SDS011;3533;51.246;6.850;2022-09-24T01:45:16;3.87;;;3.10;;
6985;SDS011;3533;51.246;6.850;2022-09-24T01:47:44;3.50;;;3.30;;
6985;SDS011;3533;51.246;6.850;2022-09-24T01:50:10;3.37;;;3.00;;
6985;SDS011;3533;51.246;6.850;2022-09-24T01:53:00;2.87;;;2.67;;
6985;SDS011;3533;51.246;6.850;2022-09-24T01:55:26;2.70;;;2.50;;
6985;SDS011;3533;51.246;6.850;2022-09-24T01:58:15;3.03;;;2.93;;
6985;SDS011;3533;51.246;6.850;2022-09-24T02:00:46;3.30;;;3.10;;
6985;SDS011;3533;51.246;6.850;2022-09-24T02:03:25;3.43;;;3.13;;
6985;SDS011;3533;51.246;6.850;2022-09-24T02:05:59;2.93;;;2.73;;
6985;SDS011;3533;51.246;6.850;2022-09-24T02:08:31;3.07;;;2.93;;
6985;SDS011;3533;51.246;6.850;2022-09-24T02:16:12;3.27;;;3.07;;
6985;SDS011;3533;51.246;6.850;2022-09-24T02:18:41;3.27;;;3.07;;
6985;SDS011;3533;51.246;6.850;2022-09-24T02:21:11;2.90;;;2.80;;
6985;SDS011;3533;51.246;6.850;2022-09-24T02:23:42;3.30;;;3.20;;
6985;SDS011;3533;51.246;6.850;2022-09-24T02:26:11;3.60;;;3.40;;
6985;SDS011;3533;51.246;6.850;2022-09-24T02:28:37;3.20;;;3.00;;
6985;SDS011;3533;51.246;6.850;2022-09-24T02:31:05;3.20;;;3.10;;
6985;SDS011;3533;51.246;6.850;2022-09-24T02:33:37;3.10;;;3.00;;
6985;SDS011;3533;51.246;6.850;2022-09-24T02:36:25;3.30;;;3.10;;
6985;SDS011;3533;51.246;6.850;2022-09-24T02:38:51;3.23;;;3.03;;
6985;SDS011;3533;51.246;6.850;2022-09-24T02:41:18;2.70;;;2.60;;
6985;SDS011;3533;51.246;6.850;2022-09-24T02:43:46;3.27;;;3.07;;
6985;SDS011;3533;51.246;6.850;2022-09-24T02:46:11;3.20;;;3.00;;
6985;SDS011;3533;51.246;6.850;2022-09-24T02:48:37;2.80;;;2.70;;
6985;SDS011;3533;51.246;6.850;2022-09-24T02:51:03;2.80;;;2.70;;
6985;SDS011;3533;51.246;6.850;2022-09-24T02:53:29;3.67;;;3.47;;
6985;SDS011;3533;51.246;6.850;2022-09-24T02:55:56;3.00;;;2.90;;
6985;SDS011;3533;51.246;6.850;2022-09-24T02:58:24;3.40;;;3.13;;
6985;SDS011;3533;51.246;6.850;2022-09-24T03:00:50;3.17;;;2.97;;
6985;SDS011;3533;51.246;6.850;2022-09-24T03:03:17;3.50;;;3.30;;
6985;SDS011;3533;51.246;6.850;2022-09-24T03:05:43;3.10;;;3.00;;
6985;SDS011;3533;51.246;6.850;2022-09-24T03:08:09;3.30;;;3.10;;
6985;SDS011;3533;51.246;6.850;2022-09-24T03:10:35;3.17;;;2.97;;
6985;SDS011;3533;51.246;6.850;2022-09-24T03:13:00;3.20;;;3.00;;
6985;SDS011;3533;51.246;6.850;2022-09-24T03:15:26;3.40;;;3.20;;
6985;SDS011;3533;51.246;6.850;2022-09-24T03:17:51;3.50;;;3.30;;
6985;SDS011;3533;51.246;6.850;2022-09-24T03:20:17;3.30;;;3.10;;
6985;SDS011;3533;51.246;6.850;2022-09-24T03:22:42;3.80;;;3.60;;
6985;SDS011;3533;51.246;6.850;2022-09-24T03:25:08;3.20;;;2.90;;
6985;SDS011;3533;51.246;6.850;2022-09-24T03:27:35;3.30;;;3.13;;
6985;SDS011;3533;51.246;6.850;2022-09-24T03:30:00;3.53;;;3.33;;
6985;SDS011;3533;51.246;6.850;2022-09-24T03:32:46;3.33;;;3.13;;
6985;SDS011;3533;51.246;6.850;2022-09-24T03:35:12;3.03;;;2.83;;
6985;SDS011;3533;51.246;6.850;2022-09-24T03:37:38;3.10;;;2.90;;
6985;SDS011;3533;51.246;6.850;2022-09-24T03:40:07;3.97;;;3.57;;
6985;SDS011;3533;51.246;6.850;2022-09-24T03:42:33;3.60;;;3.40;;
6985;SDS011;3533;51.246;6.850;2022-09-24T03:44:58;3.30;;;3.10;;
6985;SDS011;3533;51.246;6.850;2022-09-24T03:47:24;3.00;;;2.80;;
6985;SDS011;3533;51.246;6.850;2022-09-24T03:49:50;3.23;;;3.10;;
6985;SDS011;3533;51.246;6.850;2022-09-24T03:52:17;3.90;;;3.70;;
6985;SDS011;3533;51.246;6.850;2022-09-24T03:54:43;3.20;;;3.00;;
6985;SDS011;3533;51.246;6.850;2022-09-24T03:57:08;3.27;;;3.10;;
6985;SDS011;3533;51.246;6.850;2022-09-24T03:59:34;3.57;;;3.37;;
6985;SDS011;3533;51.246;6.850;2022-09-24T04:01:59;2.90;;;2.70;;
6985;SDS011;3533;51.246;6.850;2022-09-24T04:04:25;3.33;;;3.13;;
6985;SDS011;3533;51.246;6.850;2022-09-24T04:06:50;3.40;;;3.20;;
6985;SDS011;3533;51.246;6.850;2022-09-24T04:09:16;3.43;;;3.23;;
6985;SDS011;3533;51.246;6.850;2022-09-24T04:11:42;3.67;;;3.47;;
6985;SDS011;3533;51.246;6.850;2022-09-24T04:14:08;3.60;;;3.30;;
6985;SDS011;3533;51.246;6.850;2022-09-24T04:16:34;3.27;;;3.07;;
6985;SDS011;3533;51.246;6.850;2022-09-24T04:19:00;3.20;;;3.00;;
6985;SDS011;3533;51.246;6.850;2022-09-24T04:21:25;3.20;;;3.00;;
6985;SDS011;3533;51.246;6.850;2022-09-24T04:23:51;2.87;;;2.77;;
6985;SDS011;3533;51.246;6.850;2022-09-24T04:26:16;2.97;;;2.87;;
6985;SDS011;3533;51.246;6.850;2022-09-24T04:28:42;3.50;;;3.30;;
6985;SDS011;3533;51.246;6.850;2022-09-24T04:31:08;3.07;;;2.90;;
6985;SDS011;3533;51.246;6.850;2022-09-24T04:33:33;3.97;;;3.77;;
6985;SDS011;3533;51.246;6.850;2022-09-24T04:35:59;3.80;;;3.60;;
6985;SDS011;3533;51.246;6.850;2022-09-24T04:38:25;3.60;;;3.40;;
6985;SDS011;3533;51.246;6.850;2022-09-24T04:40:50;3.27;;;3.07;;
6985;SDS011;3533;51.246;6.850;2022-09-24T04:43:16;3.87;;;3.67;;
6985;SDS011;3533;51.246;6.850;2022-09-24T04:45:43;3.53;;;3.33;;
6985;SDS011;3533;51.246;6.850;2022-09-24T04:48:08;3.83;;;3.63;;
6985;SDS011;3533;51.246;6.850;2022-09-24T04:50:35;3.27;;;3.07;;
6985;SDS011;3533;51.246;6.850;2022-09-24T04:53:01;3.23;;;3.03;;
6985;SDS011;3533;51.246;6.850;2022-09-24T04:55:27;3.20;;;3.00;;
6985;SDS011;3533;51.246;6.850;2022-09-24T04:57:56;3.50;;;3.30;;
6985;SDS011;3533;51.246;6.850;2022-09-24T05:00:22;6.50;;;3.13;;
6985;SDS011;3533;51.246;6.850;2022-09-24T05:02:55;3.40;;;3.10;;
6985;SDS011;3533;51.246;6.850;2022-09-24T05:05:22;3.10;;;2.90;;
6985;SDS011;3533;51.246;6.850;2022-09-24T05:07:47;3.17;;;2.97;;
6985;SDS011;3533;51.246;6.850;2022-09-24T05:10:15;3.70;;;3.50;;
6985;SDS011;3533;51.246;6.850;2022-09-24T05:12:40;3.33;;;3.13;;
6985;SDS011;3533;51.246;6.850;2022-09-24T05:15:06;3.40;;;3.20;;
6985;SDS011;3533;51.246;6.850;2022-09-24T05:17:32;3.27;;;3.07;;
6985;SDS011;3533;51.246;6.850;2022-09-24T05:19:57;3.13;;;3.00;;
6985;SDS011;3533;51.246;6.850;2022-09-24T05:22:25;3.30;;;3.10;;
6985;SDS011;3533;51.246;6.850;2022-09-24T05:24:51;4.00;;;3.80;;
6985;SDS011;3533;51.246;6.850;2022-09-24T05:27:18;2.90;;;2.80;;
6985;SDS011;3533;51.246;6.850;2022-09-24T05:29:45;3.87;;;3.67;;
6985;SDS011;3533;51.246;6.850;2022-09-24T05:32:12;2.70;;;2.60;;
6985;SDS011;3533;51.246;6.850;2022-09-24T05:34:39;3.20;;;3.00;;
6985;SDS011;3533;51.246;6.850;2022-09-24T05:37:06;2.97;;;2.77;;
6985;SDS011;3533;51.246;6.850;2022-09-24T05:39:32;3.00;;;2.80;;
6985;SDS011;3533;51.246;6.850;2022-09-24T05:41:57;3.20;;;3.00;;
6985;SDS011;3533;51.246;6.850;2022-09-24T05:44:23;2.87;;;2.70;;
6985;SDS011;3533;51.246;6.850;2022-09-24T05:46:49;3.93;;;3.63;;
6985;SDS011;3533;51.246;6.850;2022-09-24T05:49:15;2.60;;;2.50;;
6985;SDS011;3533;51.246;6.850;2022-09-24T05:51:41;3.00;;;2.87;;
6985;SDS011;3533;51.246;6.850;2022-09-24T05:54:06;3.63;;;3.33;;
6985;SDS011;3533;51.246;6.850;2022-09-24T05:56:32;2.90;;;2.70;;
6985;SDS011;3533;51.246;6.850;2022-09-24T05:58:58;3.00;;;2.80;;
6985;SDS011;3533;51.246;6.850;2022-09-24T06:01:25;3.27;;;3.10;;
6985;SDS011;3533;51.246;6.850;2022-09-24T06:03:53;3.30;;;3.10;;
6985;SDS011;3533;51.246;6.850;2022-09-24T06:06:20;2.97;;;2.80;;
6985;SDS011;3533;51.246;6.850;2022-09-24T06:08:46;3.40;;;3.20;;
6985;SDS011;3533;51.246;6.850;2022-09-24T06:11:11;3.03;;;2.83;;
6985;SDS011;3533;51.246;6.850;2022-09-24T06:13:37;2.90;;;2.80;;
6985;SDS011;3533;51.246;6.850;2022-09-24T06:16:07;2.70;;;2.50;;
6985;SDS011;3533;51.246;6.850;2022-09-24T06:18:34;3.03;;;2.93;;
6985;SDS011;3533;51.246;6.850;2022-09-24T06:21:02;4.20;;;4.00;;
6985;SDS011;3533;51.246;6.850;2022-09-24T06:23:29;2.97;;;2.77;;
6985;SDS011;3533;51.246;6.850;2022-09-24T06:25:55;3.00;;;2.87;;
6985;SDS011;3533;51.246;6.850;2022-09-24T06:28:21;3.13;;;2.93;;
6985;SDS011;3533;51.246;6.850;2022-09-24T06:30:49;3.37;;;3.17;;
6985;SDS011;3533;51.246;6.850;2022-09-24T06:33:15;3.00;;;2.80;;
6985;SDS011;3533;51.246;6.850;2022-09-24T06:35:41;3.30;;;3.10;;
6985;SDS011;3533;51.246;6.850;2022-09-24T06:38:09;3.40;;;3.20;;
6985;SDS011;3533;51.246;6.850;2022-09-24T06:40:36;3.50;;;3.30;;
6985;SDS011;3533;51.246;6.850;2022-09-24T06:43:03;2.97;;;2.67;;
6985;SDS011;3533;51.246;6.850;2022-09-24T06:45:29;3.60;;;3.40;;
6985;SDS011;3533;51.246;6.850;2022-09-24T06:47:55;4.40;;;3.60;;
6985;SDS011;3533;51.246;6.850;2022-09-24T06:50:23;3.10;;;2.90;;
6985;SDS011;3533;51.246;6.850;2022-09-24T06:52:49;3.00;;;2.87;;
6985;SDS011;3533;51.246;6.850;2022-09-24T06:55:15;3.40;;;3.20;;
6985;SDS011;3533;51.246;6.850;2022-09-24T06:57:42;3.27;;;3.00;;
6985;SDS011;3533;51.246;6.850;2022-09-24T07:00:08;3.53;;;3.33;;
6985;SDS011;3533;51.246;6.850;2022-09-24T07:02:35;3.67;;;2.70;;
6985;SDS011;3533;51.246;6.850;2022-09-24T07:05:00;3.10;;;2.90;;
6985;SDS011;3533;51.246;6.850;2022-09-24T07:07:26;3.20;;;3.00;;
6985;SDS011;3533;51.246;6.850;2022-09-24T07:09:54;3.47;;;3.27;;
6985;SDS011;3533;51.246;6.850;2022-09-24T07:12:21;3.60;;;3.40;;
6985;SDS011;3533;51.246;6.850;2022-09-24T07:14:46;3.20;;;3.00;;
6985;SDS011;3533;51.246;6.850;2022-09-24T07:17:12;3.07;;;2.97;;
6985;SDS011;3533;51.246;6.850;2022-09-24T07:19:38;3.23;;;3.03;;
6985;SDS011;3533;51.246;6.850;2022-09-24T07:22:04;2.67;;;2.57;;
6985;SDS011;3533;51.246;6.850;2022-09-24T07:24:29;3.30;;;3.10;;
6985;SDS011;3533;51.246;6.850;2022-09-24T07:26:55;3.50;;;3.30;;
6985;SDS011;3533;51.246;6.850;2022-09-24T07:29:21;3.20;;;2.90;;
6985;SDS011;3533;51.246;6.850;2022-09-24T07:31:46;3.80;;;3.60;;
6985;SDS011;3533;51.246;6.850;2022-09-24T07:34:12;3.60;;;3.40;;
6985;SDS011;3533;51.246;6.850;2022-09-24T07:36:41;3.40;;;3.20;;
6985;SDS011;3533;51.246;6.850;2022-09-24T07:39:07;3.90;;;3.70;;
6985;SDS011;3533;51.246;6.850;2022-09-24T07:41:33;3.00;;;2.80;;
6985;SDS011;3533;51.246;6.850;2022-09-24T07:43:59;3.43;;;3.23;;
6985;SDS011;3533;51.246;6.850;2022-09-24T07:46:25;3.17;;;2.97;;
6985;SDS011;3533;51.246;6.850;2022-09-24T07:48:52;3.60;;;3.40;;
6985;SDS011;3533;51.246;6.850;2022-09-24T07:51:20;3.30;;;3.10;;
6985;SDS011;3533;51.246;6.850;2022-09-24T07:53:46;3.80;;;3.60;;
6985;SDS011;3533;51.246;6.850;2022-09-24T07:56:13;3.67;;;3.47;;
6985;SDS011;3533;51.246;6.850;2022-09-24T07:58:38;3.27;;;3.07;;
6985;SDS011;3533;51.246;6.850;2022-09-24T08:01:04;3.23;;;3.03;;
6985;SDS011;3533;51.246;6.850;2022-09-24T08:03:30;3.33;;;3.13;;
6985;SDS011;3533;51.246;6.850;2022-09-24T08:05:56;3.10;;;2.90;;
6985;SDS011;3533;51.246;6.850;2022-09-24T08:08:24;3.50;;;3.30;;
6985;SDS011;3533;51.246;6.850;2022-09-24T08:10:50;4.40;;;3.60;;
6985;SDS011;3533;51.246;6.850;2022-09-24T08:13:15;3.57;;;3.37;;
6985;SDS011;3533;51.246;6.850;2022-09-24T08:15:41;3.73;;;3.50;;
6985;SDS011;3533;51.246;6.850;2022-09-24T08:18:07;3.87;;;3.37;;
6985;SDS011;3533;51.246;6.850;2022-09-24T08:20:34;4.13;;;3.53;;
6985;SDS011;3533;51.246;6.850;2022-09-24T08:23:02;3.40;;;3.20;;
6985;SDS011;3533;51.246;6.850;2022-09-24T08:25:29;3.60;;;3.40;;
6985;SDS011;3533;51.246;6.850;2022-09-24T08:27:59;3.50;;;3.30;;
6985;SDS011;3533;51.246;6.850;2022-09-24T08:30:40;3.97;;;3.13;;
6985;SDS011;3533;51.246;6.850;2022-09-24T08:33:08;3.27;;;3.07;;
6985;SDS011;3533;51.246;6.850;2022-09-24T08:35:34;3.17;;;2.97;;
6985;SDS011;3533;51.246;6.850;2022-09-24T08:38:00;3.80;;;3.60;;
6985;SDS011;3533;51.246;6.850;2022-09-24T08:40:28;3.80;;;3.50;;
6985;SDS011;3533;51.246;6.850;2022-09-24T08:43:09;3.60;;;3.40;;
6985;SDS011;3533;51.246;6.850;2022-09-24T08:45:54;3.70;;;3.50;;
6985;SDS011;3533;51.246;6.850;2022-09-24T08:48:40;3.37;;;3.17;;
6985;SDS011;3533;51.246;6.850;2022-09-24T08:51:12;3.30;;;3.10;;
6985;SDS011;3533;51.246;6.850;2022-09-24T08:53:52;3.10;;;2.90;;
6985;SDS011;3533;51.246;6.850;2022-09-24T08:56:40;3.63;;;3.33;;
6985;SDS011;3533;51.246;6.850;2022-09-24T09:12:45;3.77;;;3.50;;
6985;SDS011;3533;51.246;6.850;2022-09-24T09:15:17;3.80;;;3.60;;
6985;SDS011;3533;51.246;6.850;2022-09-24T09:17:53;3.60;;;3.40;;
6985;SDS011;3533;51.246;6.850;2022-09-24T09:20:29;3.30;;;3.10;;
6985;SDS011;3533;51.246;6.850;2022-09-24T09:23:12;3.70;;;3.50;;
6985;SDS011;3533;51.246;6.850;2022-09-24T09:25:46;3.70;;;3.50;;
6985;SDS011;3533;51.246;6.850;2022-09-24T09:28:16;3.83;;;3.60;;
6985;SDS011;3533;51.246;6.850;2022-09-24T09:34:02;3.70;;;3.50;;
6985;SDS011;3533;51.246;6.850;2022-09-24T09:44:58;3.60;;;3.40;;
6985;SDS011;3533;51.246;6.850;2022-09-24T09:52:52;3.33;;;3.13;;
6985;SDS011;3533;51.246;6.850;2022-09-24T09:55:20;3.43;;;3.23;;
6985;SDS011;3533;51.246;6.850;2022-09-24T09:58:08;3.37;;;3.17;;
6985;SDS011;3533;51.246;6.850;2022-09-24T10:00:42;4.43;;;4.10;;
6985;SDS011;3533;51.246;6.850;2022-09-24T10:05:55;3.70;;;3.23;;
6985;SDS011;3533;51.246;6.850;2022-09-24T10:08:29;3.23;;;3.03;;
6985;SDS011;3533;51.246;6.850;2022-09-24T10:10:55;3.37;;;3.17;;
6985;SDS011;3533;51.246;6.850;2022-09-24T10:13:23;2.90;;;2.70;;
6985;SDS011;3533;51.246;6.850;2022-09-24T10:15:51;3.67;;;3.47;;
6985;SDS011;3533;51.246;6.850;2022-09-24T10:18:25;3.97;;;3.67;;
6985;SDS011;3533;51.246;6.850;2022-09-24T10:21:00;3.33;;;3.10;;
6985;SDS011;3533;51.246;6.850;2022-09-24T10:23:35;3.77;;;3.57;;
6985;SDS011;3533;51.246;6.850;2022-09-24T10:26:06;3.50;;;3.03;;
6985;SDS011;3533;51.246;6.850;2022-09-24T10:28:33;3.63;;;3.43;;
6985;SDS011;3533;51.246;6.850;2022-09-24T10:31:22;3.23;;;3.03;;
6985;SDS011;3533;51.246;6.850;2022-09-24T10:33:51;3.40;;;3.20;;
6985;SDS011;3533;51.246;6.850;2022-09-24T10:36:20;3.57;;;3.37;;
6985;SDS011;3533;51.246;6.850;2022-09-24T10:38:47;3.50;;;3.30;;
6985;SDS011;3533;51.246;6.850;2022-09-24T10:43:49;3.30;;;3.10;;
6985;SDS011;3533;51.246;6.850;2022-09-24T10:46:18;3.43;;;3.23;;
6985;SDS011;3533;51.246;6.850;2022-09-24T10:49:05;2.90;;;2.80;;
6985;SDS011;3533;51.246;6.850;2022-09-24T10:52:01;3.37;;;3.17;;
6985;SDS011;3533;51.246;6.850;2022-09-24T11:00:08;3.20;;;3.00;;
6985;SDS011;3533;51.246;6.850;2022-09-24T11:02:42;3.60;;;3.40;;
6985;SDS011;3533;51.246;6.850;2022-09-24T11:05:23;3.53;;;3.30;;
6985;SDS011;3533;51.246;6.850;2022-09-24T11:08:16;3.50;;;3.30;;
6985;SDS011;3533;51.246;6.850;2022-09-24T11:19:05;3.40;;;3.20;;
6985;SDS011;3533;51.246;6.850;2022-09-24T11:25:07;3.53;;;3.33;;
6985;SDS011;3533;51.246;6.850;2022-09-24T11:30:31;3.50;;;3.30;;
6985;SDS011;3533;51.246;6.850;2022-09-24T11:36:31;3.50;;;3.30;;
6985;SDS011;3533;51.246;6.850;2022-09-24T11:53:09;3.50;;;3.30;;
6985;SDS011;3533;51.246;6.850;2022-09-24T11:55:40;3.83;;;3.63;;
6985;SDS011;3533;51.246;6.850;2022-09-24T11:58:14;3.43;;;3.23;;
6985;SDS011;3533;51.246;6.850;2022-09-24T12:06:23;3.30;;;3.10;;
6985;SDS011;3533;51.246;6.850;2022-09-24T12:09:29;3.40;;;3.20;;
6985;SDS011;3533;51.246;6.850;2022-09-24T12:12:03;3.30;;;3.10;;
6985;SDS011;3533;51.246;6.850;2022-09-24T12:14:48;4.10;;;3.80;;
6985;SDS011;3533;51.246;6.850;2022-09-24T12:18:05;3.10;;;2.90;;
6985;SDS011;3533;51.246;6.850;2022-09-24T12:22:40;3.80;;;3.60;;
6985;SDS011;3533;51.246;6.850;2022-09-24T12:25:09;3.77;;;3.57;;
6985;SDS011;3533;51.246;6.850;2022-09-24T12:27:39;3.57;;;3.20;;
6985;SDS011;3533;51.246;6.850;2022-09-24T12:30:20;3.63;;;3.33;;
6985;SDS011;3533;51.246;6.850;2022-09-24T12:33:09;3.50;;;3.30;;
6985;SDS011;3533;51.246;6.850;2022-09-24T12:41:28;3.60;;;3.40;;
6985;SDS011;3533;51.246;6.850;2022-09-24T12:46:37;3.80;;;3.43;;
6985;SDS011;3533;51.246;6.850;2022-09-24T12:49:11;3.67;;;3.47;;
6985;SDS011;3533;51.246;6.850;2022-09-24T12:51:53;3.83;;;3.60;;
6985;SDS011;3533;51.246;6.850;2022-09-24T12:56:51;3.57;;;3.37;;
6985;SDS011;3533;51.246;6.850;2022-09-24T12:59:28;3.80;;;3.50;;
6985;SDS011;3533;51.246;6.850;2022-09-24T13:01:54;3.57;;;3.37;;
6985;SDS011;3533;51.246;6.850;2022-09-24T13:04:30;3.77;;;3.57;;
6985;SDS011;3533;51.246;6.850;2022-09-24T13:06:55;3.70;;;3.50;;
6985;SDS011;3533;51.246;6.850;2022-09-24T13:09:35;3.50;;;3.30;;
6985;SDS011;3533;51.246;6.850;2022-09-24T13:12:19;3.90;;;3.60;;
6985;SDS011;3533;51.246;6.850;2022-09-24T13:14:47;3.50;;;3.30;;
6985;SDS011;3533;51.246;6.850;2022-09-24T13:17:31;3.60;;;3.40;;
6985;SDS011;3533;51.246;6.850;2022-09-24T13:20:02;3.40;;;3.20;;
6985;SDS011;3533;51.246;6.850;2022-09-24T13:22:36;3.50;;;3.30;;
6985;SDS011;3533;51.246;6.850;2022-09-24T13:32:50;3.90;;;3.60;;
6985;SDS011;3533;51.246;6.850;2022-09-24T13:35:33;4.20;;;3.90;;
6985;SDS011;3533;51.246;6.850;2022-09-24T13:38:07;3.80;;;3.60;;
6985;SDS011;3533;51.246;6.850;2022-09-24T13:40:47;4.07;;;3.60;;
6985;SDS011;3533;51.246;6.850;2022-09-24T13:46:00;3.53;;;3.20;;
6985;SDS011;3533;51.246;6.850;2022-09-24T13:48:30;4.03;;;3.77;;
6985;SDS011;3533;51.246;6.850;2022-09-24T13:50:57;4.27;;;4.07;;
6985;SDS011;3533;51.246;6.850;2022-09-24T13:55:59;4.00;;;3.60;;
6985;SDS011;3533;51.246;6.850;2022-09-24T13:58:33;4.00;;;3.80;;
6985;SDS011;3533;51.246;6.850;2022-09-24T14:01:00;3.90;;;3.60;;
6985;SDS011;3533;51.246;6.850;2022-09-24T14:03:29;3.97;;;3.77;;
6985;SDS011;3533;51.246;6.850;2022-09-24T14:05:57;3.90;;;3.70;;
6985;SDS011;3533;51.246;6.850;2022-09-24T14:08:24;4.47;;;4.13;;
6985;SDS011;3533;51.246;6.850;2022-09-24T14:10:51;4.07;;;3.87;;
6985;SDS011;3533;51.246;6.850;2022-09-24T14:13:27;3.50;;;3.30;;
6985;SDS011;3533;51.246;6.850;2022-09-24T14:16:06;4.00;;;3.70;;
6985;SDS011;3533;51.246;6.850;2022-09-24T14:18:33;4.20;;;4.00;;
6985;SDS011;3533;51.246;6.850;2022-09-24T14:21:06;4.30;;;4.00;;
6985;SDS011;3533;51.246;6.850;2022-09-24T14:29:16;4.40;;;4.00;;
6985;SDS011;3533;51.246;6.850;2022-09-24T14:31:48;3.90;;;3.70;;
6985;SDS011;3533;51.246;6.850;2022-09-24T14:34:24;4.03;;;3.73;;
6985;SDS011;3533;51.246;6.850;2022-09-24T14:36:56;4.57;;;4.17;;
6985;SDS011;3533;51.246;6.850;2022-09-24T14:39:30;3.97;;;3.77;;
6985;SDS011;3533;51.246;6.850;2022-09-24T14:41:55;4.00;;;3.80;;
6985;SDS011;3533;51.246;6.850;2022-09-24T14:44:26;3.73;;;3.53;;
6985;SDS011;3533;51.246;6.850;2022-09-24T14:46:57;4.27;;;3.97;;
6985;SDS011;3533;51.246;6.850;2022-09-24T14:49:24;3.50;;;3.30;;
6985;SDS011;3533;51.246;6.850;2022-09-24T14:54:30;3.90;;;3.70;;
6985;SDS011;3533;51.246;6.850;2022-09-24T14:59:55;4.40;;;4.10;;
6985;SDS011;3533;51.246;6.850;2022-09-24T15:04:53;4.87;;;4.40;;
6985;SDS011;3533;51.246;6.850;2022-09-24T15:07:25;3.80;;;3.60;;
6985;SDS011;3533;51.246;6.850;2022-09-24T15:09:59;3.90;;;3.70;;
6985;SDS011;3533;51.246;6.850;2022-09-24T15:12:33;3.60;;;3.40;;
6985;SDS011;3533;51.246;6.850;2022-09-24T15:17:29;3.73;;;3.53;;
6985;SDS011;3533;51.246;6.850;2022-09-24T15:19:56;3.57;;;3.27;;
6985;SDS011;3533;51.246;6.850;2022-09-24T15:22:23;4.13;;;3.83;;
6985;SDS011;3533;51.246;6.850;2022-09-24T15:24:51;3.87;;;3.57;;
6985;SDS011;3533;51.246;6.850;2022-09-24T15:27:21;4.20;;;3.97;;
6985;SDS011;3533;51.246;6.850;2022-09-24T15:29:53;3.67;;;3.47;;
6985;SDS011;3533;51.246;6.850;2022-09-24T15:32:22;4.07;;;3.77;;
6985;SDS011;3533;51.246;6.850;2022-09-24T15:34:48;4.37;;;4.00;;
6985;SDS011;3533;51.246;6.850;2022-09-24T15:37:14;4.10;;;3.90;;
6985;SDS011;3533;51.246;6.850;2022-09-24T15:39:45;3.87;;;3.67;;
6985;SDS011;3533;51.246;6.850;2022-09-24T15:42:15;3.63;;;3.40;;
6985;SDS011;3533;51.246;6.850;2022-09-24T15:44:42;3.57;;;3.37;;
6985;SDS011;3533;51.246;6.850;2022-09-24T15:47:09;4.07;;;3.87;;
6985;SDS011;3533;51.246;6.850;2022-09-24T15:49:34;4.10;;;3.90;;
6985;SDS011;3533;51.246;6.850;2022-09-24T15:52:21;3.90;;;3.70;;
6985;SDS011;3533;51.246;6.850;2022-09-24T15:54:51;4.10;;;3.90;;
6985;SDS011;3533;51.246;6.850;2022-09-24T15:57:21;4.13;;;3.93;;
6985;SDS011;3533;51.246;6.850;2022-09-24T15:59:47;4.00;;;3.80;;
6985;SDS011;3533;51.246;6.850;2022-09-24T16:02:17;4.10;;;3.80;;
6985;SDS011;3533;51.246;6.850;2022-09-24T16:04:47;4.10;;;3.80;;
6985;SDS011;3533;51.246;6.850;2022-09-24T16:07:12;3.97;;;3.77;;
6985;SDS011;3533;51.246;6.850;2022-09-24T16:09:38;4.20;;;4.00;;
6985;SDS011;3533;51.246;6.850;2022-09-24T16:12:04;4.20;;;4.00;;
6985;SDS011;3533;51.246;6.850;2022-09-24T16:14:30;4.10;;;3.90;;
6985;SDS011;3533;51.246;6.850;2022-09-24T16:16:55;4.23;;;4.00;;
6985;SDS011;3533;51.246;6.850;2022-09-24T16:19:21;4.47;;;4.17;;
6985;SDS011;3533;51.246;6.850;2022-09-24T16:21:47;4.70;;;3.73;;
6985;SDS011;3533;51.246;6.850;2022-09-24T16:24:13;3.67;;;3.47;;
6985;SDS011;3533;51.246;6.850;2022-09-24T16:26:38;4.33;;;3.93;;
6985;SDS011;3533;51.246;6.850;2022-09-24T16:29:04;3.90;;;3.70;;
6985;SDS011;3533;51.246;6.850;2022-09-24T16:31:30;4.27;;;4.07;;
6985;SDS011;3533;51.246;6.850;2022-09-24T16:33:56;4.23;;;3.93;;
6985;SDS011;3533;51.246;6.850;2022-09-24T16:36:21;3.67;;;3.40;;
6985;SDS011;3533;51.246;6.850;2022-09-24T16:38:50;4.07;;;3.77;;
6985;SDS011;3533;51.246;6.850;2022-09-24T16:41:15;3.80;;;3.60;;
6985;SDS011;3533;51.246;6.850;2022-09-24T16:43:44;4.43;;;4.07;;
6985;SDS011;3533;51.246;6.850;2022-09-24T16:46:10;4.53;;;4.23;;
6985;SDS011;3533;51.246;6.850;2022-09-24T16:48:35;4.40;;;4.20;;
6985;SDS011;3533;51.246;6.850;2022-09-24T16:51:05;3.90;;;3.70;;
6985;SDS011;3533;51.246;6.850;2022-09-24T16:53:31;4.53;;;3.63;;
6985;SDS011;3533;51.246;6.850;2022-09-24T16:56:10;4.60;;;4.30;;
6985;SDS011;3533;51.246;6.850;2022-09-24T16:58:40;4.73;;;4.40;;
6985;SDS011;3533;51.246;6.850;2022-09-24T17:01:11;4.30;;;4.10;;
6985;SDS011;3533;51.246;6.850;2022-09-24T17:03:38;3.90;;;3.70;;
6985;SDS011;3533;51.246;6.850;2022-09-24T17:06:04;4.10;;;3.90;;
6985;SDS011;3533;51.246;6.850;2022-09-24T17:08:30;4.20;;;3.90;;
6985;SDS011;3533;51.246;6.850;2022-09-24T17:11:18;4.23;;;3.77;;
6985;SDS011;3533;51.246;6.850;2022-09-24T17:13:45;3.87;;;3.67;;
6985;SDS011;3533;51.246;6.850;2022-09-24T17:16:12;3.40;;;3.20;;
6985;SDS011;3533;51.246;6.850;2022-09-24T17:18:38;4.07;;;3.87;;
6985;SDS011;3533;51.246;6.850;2022-09-24T17:21:05;4.03;;;3.83;;
6985;SDS011;3533;51.246;6.850;2022-09-24T17:23:33;6.03;;;4.53;;
6985;SDS011;3533;51.246;6.850;2022-09-24T17:26:18;4.03;;;3.83;;
6985;SDS011;3533;51.246;6.850;2022-09-24T17:28:46;4.37;;;4.17;;
6985;SDS011;3533;51.246;6.850;2022-09-24T17:31:15;3.73;;;3.53;;
6985;SDS011;3533;51.246;6.850;2022-09-24T17:33:42;5.73;;;4.40;;
6985;SDS011;3533;51.246;6.850;2022-09-24T17:36:08;3.70;;;3.47;;
6985;SDS011;3533;51.246;6.850;2022-09-24T17:38:36;4.23;;;3.93;;
6985;SDS011;3533;51.246;6.850;2022-09-24T17:41:03;4.17;;;3.97;;
6985;SDS011;3533;51.246;6.850;2022-09-24T17:43:31;3.80;;;3.60;;
6985;SDS011;3533;51.246;6.850;2022-09-24T17:46:00;3.90;;;3.60;;